Time;durP1;ratioP1;P1;durP2;ratioP2;P2;SDS_P1;SDS_P2;PMS_P1;PMS_P2;Temp;Humidity;BMP_temperature;BMP_pressure;BME280_temperature;BME280_humidity;BME280_pressure;Samples;Min_cycle;Max_cycle;Signal;HPM_P1;HPM_P2
2023/04/03 00:01:20;;;;;;;1.20;0.70;;;;;;;14.37;87.14;99509.00;108442;1281;21988;-65
2023/04/03 00:04:05;;;;;;;2.20;0.80;;;;;;;14.37;87.31;99509.71;108369;1281;21981;-71
2023/04/03 00:06:33;;;;;;;1.40;0.80;;;;;;;14.36;87.31;99510.31;108445;1281;21991;-66
2023/04/03 00:08:59;;;;;;;1.10;0.50;;;;;;;14.34;87.07;99509.50;108472;1281;23059;-65
2023/04/03 00:11:26;;;;;;;1.60;0.70;;;;;;;14.36;86.59;99508.69;107829;1281;1002537;-66
2023/04/03 00:13:51;;;;;;;0.90;0.60;;;;;;;14.35;87.34;99508.08;108569;1281;23618;-71
2023/04/03 00:16:35;;;;;;;1.00;0.60;;;;;;;14.34;86.75;99508.27;108409;1281;21985;-71
2023/04/03 00:19:02;;;;;;;1.00;0.50;;;;;;;14.34;86.83;99511.98;108477;1281;21990;-66
2023/04/03 00:21:28;;;;;;;1.00;0.60;;;;;;;14.26;87.21;99516.00;108437;1281;21987;-66
2023/04/03 00:23:54;;;;;;;1.20;0.70;;;;;;;14.09;89.55;99517.77;108449;1281;22925;-67
2023/04/03 00:26:28;;;;;;;1.50;0.50;;;;;;;14.07;89.18;99516.77;108415;1281;21981;-71
2023/04/03 00:28:53;;;;;;;1.80;0.60;;;;;;;14.02;90.21;99514.86;108445;1281;23759;-71
2023/04/03 00:31:19;;;;;;;1.90;0.70;;;;;;;14.00;90.39;99519.36;108481;1282;22007;-70
2023/04/03 00:33:45;;;;;;;1.20;0.60;;;;;;;14.05;88.43;99518.27;108494;1281;22757;-66
2023/04/03 00:36:11;;;;;;;0.80;0.40;;;;;;;14.04;88.58;99512.48;108486;1281;21986;-65
2023/04/03 00:38:37;;;;;;;0.80;0.60;;;;;;;14.03;88.94;99513.05;108354;1281;21985;-66
2023/04/03 00:41:04;;;;;;;1.00;0.60;;;;;;;14.03;88.91;99519.05;108405;1282;22020;-71
2023/04/03 00:43:32;;;;;;;1.30;0.50;;;;;;;14.02;88.10;99520.48;108424;1282;23505;-66
2023/04/03 00:45:59;;;;;;;1.20;0.50;;;;;;;14.01;88.60;99520.89;108454;1282;22703;-67
2023/04/03 00:48:30;;;;;;;0.70;0.50;;;;;;;14.00;88.74;99521.98;107746;1281;1002258;-71
2023/04/03 00:50:56;;;;;;;1.70;0.90;;;;;;;13.96;89.14;99523.00;108519;1281;24317;-66
2023/04/03 00:53:24;;;;;;;3.30;0.70;;;;;;;13.96;88.72;99527.61;108456;1281;21984;-66
2023/04/03 00:55:50;;;;;;;0.70;0.60;;;;;;;13.98;87.96;99526.31;108495;1281;23766;-72
2023/04/03 00:58:18;;;;;;;1.20;0.40;;;;;;;13.96;88.50;99527.59;108469;1281;22945;-71
2023/04/03 01:00:46;;;;;;;1.40;0.50;;;;;;;13.94;89.02;99526.98;108540;1281;21998;-66
2023/04/03 01:03:12;;;;;;;1.40;0.60;;;;;;;13.96;88.51;99528.14;108539;1281;22045;-71
2023/04/03 01:05:39;;;;;;;0.90;0.50;;;;;;;13.93;88.72;99528.94;108493;1281;22033;-72
2023/04/03 01:08:06;;;;;;;2.20;0.60;;;;;;;13.92;89.29;99530.07;108311;1281;22455;-72
2023/04/03 01:10:31;;;;;;;1.00;0.50;;;;;;;13.88;90.10;99528.97;108270;1281;21978;-66
2023/04/03 01:12:57;;;;;;;0.90;0.50;;;;;;;13.88;89.19;99533.06;108392;1281;21982;-66
2023/04/03 01:15:27;;;;;;;0.80;0.60;;;;;;;13.91;87.99;99534.49;108455;1281;21980;-66
2023/04/03 01:17:56;;;;;;;1.20;0.70;;;;;;;13.94;87.95;99535.80;108579;1271;23071;-71
2023/04/03 01:20:36;;;;;;;1.00;0.70;;;;;;;13.97;87.35;99536.03;108585;1281;23634;-72
2023/04/03 01:23:05;;;;;;;1.40;0.70;;;;;;;14.02;87.29;99540.98;108501;1281;21990;-65
2023/04/03 01:25:31;;;;;;;1.40;0.60;;;;;;;14.02;87.14;99540.06;108534;1281;23829;-70
2023/04/03 01:27:57;;;;;;;0.90;0.60;;;;;;;14.03;86.97;99541.79;108469;1281;23709;-70
2023/04/03 01:30:25;;;;;;;1.10;0.60;;;;;;;14.02;87.54;99543.44;108465;1281;24317;-66
2023/04/03 01:32:52;;;;;;;1.20;0.60;;;;;;;14.02;87.11;99545.73;108388;1281;21978;-65
2023/04/03 01:35:17;;;;;;;1.00;0.50;;;;;;;14.02;86.95;99547.30;108463;1281;23704;-64
2023/04/03 01:37:43;;;;;;;0.90;0.60;;;;;;;14.01;87.60;99549.27;108546;1281;23108;-64
2023/04/03 01:40:10;;;;;;;1.60;0.60;;;;;;;14.10;86.56;99549.82;108481;1281;21970;-70
2023/04/03 01:42:35;;;;;;;0.80;0.50;;;;;;;14.19;85.96;99553.88;108507;1281;21976;-65
2023/04/03 01:45:01;;;;;;;1.10;0.60;;;;;;;14.11;87.78;99552.23;108442;1282;21992;-66
2023/04/03 01:47:28;;;;;;;1.30;0.70;;;;;;;14.11;87.23;99557.35;108496;1282;23712;-65
2023/04/03 01:49:53;;;;;;;2.30;0.70;;;;;;;14.13;86.65;99559.23;108474;1281;21985;-70
2023/04/03 01:52:19;;;;;;;1.10;0.70;;;;;;;14.17;86.24;99560.48;108468;1281;21981;-69
2023/04/03 01:54:45;;;;;;;1.80;0.60;;;;;;;14.19;85.91;99560.93;108526;1281;22012;-66
2023/04/03 01:57:10;;;;;;;1.40;0.60;;;;;;;14.18;86.05;99562.02;108450;1280;21982;-64
2023/04/03 01:59:36;;;;;;;1.00;0.60;;;;;;;14.20;85.47;99563.70;108237;1281;21968;-67
2023/04/03 02:02:02;;;;;;;1.30;0.70;;;;;;;14.19;86.29;99566.77;108474;1282;21982;-67
2023/04/03 02:04:28;;;;;;;1.20;0.60;;;;;;;14.16;86.55;99566.00;108491;1281;21991;-72
2023/04/03 02:06:54;;;;;;;1.50;0.70;;;;;;;14.13;87.34;99564.36;108570;1280;21989;-73
2023/04/03 02:09:19;;;;;;;1.80;0.80;;;;;;;14.16;86.98;99567.39;108540;1281;22448;-72
2023/04/03 02:11:45;;;;;;;1.10;0.60;;;;;;;14.14;86.97;99571.34;108483;1281;23709;-72
2023/04/03 02:14:14;;;;;;;2.00;0.60;;;;;;;14.23;85.42;99571.52;108493;1281;21992;-72
2023/04/03 02:16:40;;;;;;;2.40;0.60;;;;;;;14.24;85.92;99570.77;108423;1281;24377;-72
2023/04/03 02:19:06;;;;;;;0.90;0.60;;;;;;;14.24;85.55;99573.42;108418;1281;23328;-72
2023/04/03 02:21:33;;;;;;;1.10;0.70;;;;;;;14.27;85.03;99573.48;108487;1281;22041;-66
2023/04/03 02:23:59;;;;;;;0.90;0.50;;;;;;;14.31;84.95;99570.84;108486;1281;21983;-65
2023/04/03 02:26:25;;;;;;;1.30;0.80;;;;;;;14.33;85.06;99571.83;108438;1278;23711;-71
2023/04/03 02:28:51;;;;;;;1.10;0.60;;;;;;;14.33;84.83;99575.01;108484;1281;21983;-71
2023/04/03 02:31:17;;;;;;;1.50;0.80;;;;;;;14.37;84.26;99581.02;108522;1281;21980;-66
2023/04/03 02:33:43;;;;;;;1.00;0.70;;;;;;;14.38;84.52;99581.50;108426;1282;21992;-66
2023/04/03 02:36:09;;;;;;;1.00;0.70;;;;;;;14.39;84.41;99578.83;108380;1281;23602;-72
2023/04/03 02:38:35;;;;;;;2.70;0.80;;;;;;;14.38;85.33;99582.41;108419;1281;23708;-72
2023/04/03 02:41:05;;;;;;;1.90;0.70;;;;;;;14.39;84.59;99583.06;108396;1281;21982;-72
2023/04/03 02:43:31;;;;;;;0.90;0.60;;;;;;;14.40;83.92;99585.99;108433;1277;23717;-72
2023/04/03 02:45:57;;;;;;;1.70;0.70;;;;;;;14.43;83.86;99582.91;108389;1281;24315;-72
2023/04/03 02:48:23;;;;;;;1.40;0.90;;;;;;;14.49;83.94;99586.17;108409;1281;23127;-66
2023/04/03 02:50:50;;;;;;;1.60;0.60;;;;;;;14.47;84.11;99583.24;108492;1281;23641;-66
2023/04/03 02:53:17;;;;;;;1.10;0.70;;;;;;;14.40;84.53;99588.30;108456;1281;22009;-66
2023/04/03 02:55:44;;;;;;;1.30;0.70;;;;;;;14.40;83.81;99591.30;108541;1281;23625;-72
2023/04/03 02:58:11;;;;;;;1.00;0.70;;;;;;;14.41;84.09;99592.33;108456;1281;21979;-73
2023/04/03 03:00:36;;;;;;;3.30;1.30;;;;;;;14.40;84.13;99592.38;108379;1281;22000;-71
2023/04/03 03:03:02;;;;;;;1.10;0.70;;;;;;;14.42;83.50;99596.18;108432;1281;24965;-65
2023/04/03 03:05:28;;;;;;;2.70;1.00;;;;;;;14.38;84.88;99601.28;108502;1281;21982;-71
2023/04/03 03:07:54;;;;;;;1.00;0.80;;;;;;;14.39;84.33;99601.60;108408;1281;21983;-65
2023/04/03 03:10:20;;;;;;;1.50;0.80;;;;;;;14.32;85.25;99602.23;108387;1281;21957;-66
2023/04/03 03:12:45;;;;;;;1.40;0.70;;;;;;;14.24;85.54;99602.73;108430;1281;21988;-66
2023/04/03 03:15:11;;;;;;;0.90;0.50;;;;;;;14.19;86.41;99603.27;108445;1281;23708;-71
2023/04/03 03:17:38;;;;;;;1.20;0.70;;;;;;;14.26;84.94;99605.30;108497;1281;22616;-66
2023/04/03 03:20:05;;;;;;;1.50;0.70;;;;;;;14.28;84.72;99608.02;108415;1281;22448;-65
2023/04/03 03:22:31;;;;;;;1.40;0.60;;;;;;;14.28;84.53;99608.55;108478;1281;23663;-72
2023/04/03 03:24:57;;;;;;;0.80;0.50;;;;;;;14.31;83.93;99610.77;108415;1281;23609;-65
2023/04/03 03:27:25;;;;;;;1.30;0.60;;;;;;;14.33;83.93;99615.06;108414;1281;23707;-65
2023/04/03 03:29:51;;;;;;;1.70;0.90;;;;;;;14.32;84.54;99618.62;108444;1281;22021;-66
2023/04/03 03:32:17;;;;;;;0.80;0.70;;;;;;;14.32;84.17;99623.22;108385;1281;21994;-71
2023/04/03 03:34:43;;;;;;;1.10;0.60;;;;;;;14.34;83.97;99624.23;108385;1281;22929;-65
2023/04/03 03:37:09;;;;;;;1.30;0.70;;;;;;;14.32;84.56;99619.90;108477;1281;22148;-71
2023/04/03 03:39:35;;;;;;;2.20;0.90;;;;;;;14.33;83.66;99619.67;108482;1275;22147;-73
2023/04/03 03:42:02;;;;;;;1.90;0.80;;;;;;;14.33;83.79;99623.71;108491;1281;21984;-65
2023/04/03 03:44:29;;;;;;;3.20;0.80;;;;;;;14.35;83.59;99624.69;108541;1281;23933;-71
2023/04/03 03:46:55;;;;;;;1.40;0.90;;;;;;;14.36;83.80;99631.73;108495;1281;21980;-64
2023/04/03 03:49:21;;;;;;;1.90;0.70;;;;;;;14.37;83.25;99637.33;108488;1281;23046;-69
2023/04/03 03:51:48;;;;;;;1.80;1.10;;;;;;;14.37;83.22;99641.19;108424;1281;21985;-65
2023/04/03 03:54:14;;;;;;;1.30;0.80;;;;;;;14.36;83.38;99643.86;108552;1281;21984;-65
2023/04/03 03:56:41;;;;;;;3.40;0.80;;;;;;;14.41;83.26;99646.70;108506;1281;22156;-64
2023/04/03 03:59:07;;;;;;;2.60;1.10;;;;;;;14.46;83.36;99646.48;108494;1281;23605;-64
2023/04/03 04:01:32;;;;;;;2.40;1.20;;;;;;;14.50;83.37;99647.92;108465;1281;22442;-64
2023/04/03 04:03:59;;;;;;;1.60;1.10;;;;;;;14.54;83.64;99648.67;108444;1281;22756;-69
2023/04/03 04:06:25;;;;;;;1.60;0.90;;;;;;;14.55;83.04;99652.14;108435;1281;21999;-69
2023/04/03 04:08:53;;;;;;;2.30;1.40;;;;;;;14.58;83.19;99652.56;108479;1281;22023;-69
2023/04/03 04:11:20;;;;;;;3.10;1.10;;;;;;;14.58;83.07;99652.71;108485;1281;21997;-69
2023/04/03 04:13:46;;;;;;;1.80;1.10;;;;;;;14.57;83.28;99654.54;108288;1281;22807;-63
2023/04/03 04:16:11;;;;;;;1.20;0.90;;;;;;;14.56;83.54;99658.98;108582;1281;21984;-69
2023/04/03 04:18:37;;;;;;;2.60;1.40;;;;;;;14.56;83.48;99661.98;108440;1281;22075;-64
2023/04/03 04:21:08;;;;;;;2.60;1.30;;;;;;;14.58;83.09;99660.48;108185;1281;21986;-70
2023/04/03 04:23:36;;;;;;;1.90;1.30;;;;;;;14.57;84.15;99664.25;108482;1281;21987;-71
2023/04/03 04:26:02;;;;;;;2.30;1.30;;;;;;;14.63;83.29;99667.16;108473;1281;22039;-71
2023/04/03 04:28:28;;;;;;;3.40;1.30;;;;;;;14.68;83.21;99667.35;108256;1281;21985;-71
2023/04/03 04:30:54;;;;;;;2.40;1.40;;;;;;;14.72;83.50;99669.88;108471;1281;22153;-71
2023/04/03 04:33:20;;;;;;;1.70;1.30;;;;;;;14.77;83.49;99669.10;108567;1281;22020;-72
2023/04/03 04:35:47;;;;;;;2.10;1.20;;;;;;;14.83;83.64;99670.64;108484;1281;21995;-64
2023/04/03 04:38:13;;;;;;;2.00;1.30;;;;;;;14.86;83.72;99673.33;108507;1281;23714;-72
2023/04/03 04:40:43;;;;;;;2.60;1.70;;;;;;;14.88;83.37;99674.49;108451;1278;22338;-71
2023/04/03 04:43:08;;;;;;;2.70;1.80;;;;;;;14.92;83.33;99676.10;108460;1281;23712;-72
2023/04/03 04:45:35;;;;;;;2.00;1.30;;;;;;;14.95;83.23;99680.39;108449;1277;23603;-71
2023/04/03 04:48:01;;;;;;;2.30;1.80;;;;;;;15.00;83.39;99682.64;108545;1281;23040;-71
2023/04/03 04:50:27;;;;;;;1.70;1.30;;;;;;;15.07;83.80;99685.21;108452;1281;21986;-71
2023/04/03 04:52:53;;;;;;;2.60;1.60;;;;;;;15.09;83.28;99685.09;108485;1281;21986;-72
2023/04/03 04:55:18;;;;;;;2.10;1.30;;;;;;;15.13;83.13;99685.12;108483;1281;21998;-65
2023/04/03 04:57:44;;;;;;;1.90;1.30;;;;;;;15.17;83.42;99689.20;108439;1281;21990;-65
2023/04/03 05:00:11;;;;;;;2.00;1.40;;;;;;;15.23;83.35;99685.73;108539;1281;21949;-65
2023/04/03 05:02:40;;;;;;;;;;;;;;;15.29;83.15;99687.95;108472;1281;21968;-71
2023/04/03 05:05:07;;;;;;;1.70;1.20;;;;;;;15.33;83.65;99689.59;108524;1281;21990;-71
2023/04/03 05:07:33;;;;;;;2.10;1.30;;;;;;;15.33;83.91;99690.80;108440;1281;23616;-64
2023/04/03 05:09:59;;;;;;;1.90;1.20;;;;;;;15.35;83.70;99689.31;108475;1281;21983;-71
2023/04/03 05:12:25;;;;;;;1.30;1.10;;;;;;;15.35;84.88;99692.86;108528;1281;21986;-75
2023/04/03 05:14:51;;;;;;;1.90;1.10;;;;;;;15.33;84.38;99692.91;108568;1281;21983;-65
2023/04/03 05:17:17;;;;;;;1.70;1.00;;;;;;;15.38;83.77;99693.08;108531;1281;21983;-65
2023/04/03 05:19:43;;;;;;;1.30;0.90;;;;;;;15.43;84.56;99695.02;108361;1281;21990;-71
2023/04/03 05:22:09;;;;;;;1.90;1.20;;;;;;;15.41;85.01;99698.61;108621;1281;22163;-72
2023/04/03 05:24:35;;;;;;;2.80;1.10;;;;;;;15.39;85.31;99698.68;108512;1281;23676;-67
2023/04/03 05:27:01;;;;;;;3.20;1.20;;;;;;;15.40;85.02;99697.27;108425;1281;21985;-66
2023/04/03 05:29:27;;;;;;;2.10;1.20;;;;;;;15.43;84.55;99699.59;108620;1281;21998;-72
2023/04/03 05:31:53;;;;;;;1.30;0.90;;;;;;;15.49;85.22;99700.95;108468;1281;21991;-73
2023/04/03 05:34:18;;;;;;;2.20;1.50;;;;;;;15.57;85.02;99703.42;108484;1281;21982;-71
2023/04/03 05:36:44;;;;;;;1.10;0.90;;;;;;;15.66;85.30;99702.10;108401;1281;22052;-66
2023/04/03 05:39:16;;;;;;;1.70;1.10;;;;;;;15.76;85.15;99702.02;108587;1281;22005;-67
2023/04/03 05:41:43;;;;;;;1.60;1.00;;;;;;;15.84;84.93;99697.98;108209;1281;22010;-67
2023/04/03 05:44:09;;;;;;;1.90;1.20;;;;;;;15.91;85.12;99702.27;108331;1281;21986;-72
2023/04/03 05:46:35;;;;;;;3.70;1.10;;;;;;;15.97;84.76;99703.45;108568;1281;21984;-73
2023/04/03 05:49:01;;;;;;;1.30;1.00;;;;;;;15.95;85.03;99703.69;108489;1281;21976;-73
2023/04/03 05:51:33;;;;;;;1.60;1.00;;;;;;;15.94;84.42;99707.82;108455;1275;24041;-71
2023/04/03 05:54:03;;;;;;;2.00;1.30;;;;;;;15.94;84.97;99710.14;108432;1281;21999;-66
2023/04/03 05:56:30;;;;;;;2.10;0.90;;;;;;;15.95;85.49;99712.54;108485;1281;23637;-72
2023/04/03 05:58:56;;;;;;;2.60;1.20;;;;;;;15.98;85.47;99713.81;108422;1278;21980;-70
2023/04/03 06:01:25;;;;;;;1.00;0.70;;;;;;;15.95;86.02;99717.65;108463;1281;21982;-70
2023/04/03 06:03:50;;;;;;;2.40;0.80;;;;;;;15.96;85.98;99719.92;108466;1281;21982;-69
2023/04/03 06:06:16;;;;;;;1.20;0.50;;;;;;;15.94;86.73;99721.41;108469;1281;21990;-69
2023/04/03 06:08:43;;;;;;;1.50;0.80;;;;;;;15.83;86.90;99721.55;108559;1281;21982;-66
2023/04/03 06:11:09;;;;;;;1.40;0.80;;;;;;;15.80;86.60;99720.95;108499;1281;21983;-71
2023/04/03 06:13:35;;;;;;;3.40;0.80;;;;;;;15.75;86.88;99723.66;108452;1281;23615;-72
2023/04/03 06:16:02;;;;;;;1.20;0.60;;;;;;;15.71;87.87;99722.23;108530;1281;21993;-68
2023/04/03 06:18:28;;;;;;;2.30;0.80;;;;;;;15.73;87.14;99721.80;108431;1282;21979;-66
2023/04/03 06:20:54;;;;;;;1.60;0.90;;;;;;;15.74;86.37;99724.23;108536;1282;21982;-71
2023/04/03 06:23:21;;;;;;;1.70;0.90;;;;;;;15.73;86.20;99726.56;108539;1282;22026;-72
2023/04/03 06:25:46;;;;;;;1.40;0.60;;;;;;;15.63;87.38;99730.89;108477;1282;23722;-72
2023/04/03 06:28:12;;;;;;;1.60;0.80;;;;;;;15.60;88.66;99731.91;108564;1281;21983;-71
2023/04/03 06:30:38;;;;;;;1.00;0.60;;;;;;;15.66;88.74;99737.10;108577;1281;23679;-69
2023/04/03 06:33:04;;;;;;;1.40;0.70;;;;;;;15.62;89.21;99737.84;108495;1281;22097;-66
2023/04/03 06:35:30;;;;;;;1.40;0.80;;;;;;;15.66;88.95;99738.90;108435;1280;23141;-66
2023/04/03 06:37:56;;;;;;;1.90;1.20;;;;;;;15.65;89.92;99744.59;108619;1281;21994;-66
2023/04/03 06:40:23;;;;;;;1.50;0.70;;;;;;;15.65;89.27;99747.96;108496;1281;22063;-67
2023/04/03 06:42:52;;;;;;;1.40;0.70;;;;;;;15.74;87.40;99753.06;108539;1281;21987;-66
2023/04/03 06:45:18;;;;;;;1.50;0.80;;;;;;;15.70;87.80;99752.87;108518;1281;22039;-67
2023/04/03 06:47:45;;;;;;;1.10;0.70;;;;;;;15.76;86.63;99755.83;108541;1281;23047;-71
2023/04/03 06:50:13;;;;;;;1.40;0.70;;;;;;;15.77;87.34;99752.95;108659;1281;21982;-67
2023/04/03 06:52:43;;;;;;;1.60;0.80;;;;;;;15.65;89.07;99756.29;108494;1281;23809;-67
2023/04/03 06:55:12;;;;;;;1.90;1.10;;;;;;;15.83;88.30;99756.58;108587;1281;21993;-71
2023/04/03 06:57:38;;;;;;;1.30;0.90;;;;;;;15.97;87.73;99761.66;108552;1280;22737;-70
2023/04/03 07:00:05;;;;;;;1.50;0.90;;;;;;;15.92;88.37;99765.22;108514;1281;21991;-71
2023/04/03 07:02:32;;;;;;;2.00;0.90;;;;;;;15.75;88.36;99766.99;108278;1282;21984;-68
2023/04/03 07:04:59;;;;;;;1.50;0.90;;;;;;;15.90;87.46;99771.15;108457;1280;21982;-69
2023/04/03 07:07:25;;;;;;;1.70;0.80;;;;;;;15.86;88.91;99775.75;108344;1281;22450;-69
2023/04/03 07:09:51;;;;;;;1.90;0.90;;;;;;;16.04;87.94;99778.86;108437;1281;22018;-72
2023/04/03 07:12:17;;;;;;;2.50;0.90;;;;;;;16.14;86.79;99781.76;108433;1281;23617;-72
2023/04/03 07:14:44;;;;;;;3.70;1.10;;;;;;;16.16;86.94;99790.33;108421;1281;23047;-68
2023/04/03 07:17:09;;;;;;;2.80;1.00;;;;;;;16.22;85.31;99794.52;108532;1280;21992;-69
2023/04/03 07:19:36;;;;;;;1.80;1.00;;;;;;;16.21;85.58;99792.62;108398;1280;23602;-69
2023/04/03 07:22:02;;;;;;;2.80;1.30;;;;;;;16.19;85.49;99795.72;108514;1281;21987;-68
2023/04/03 07:24:28;;;;;;;1.90;1.10;;;;;;;16.11;85.44;99796.95;108262;1281;21982;-70
2023/04/03 07:26:53;;;;;;;2.20;1.60;;;;;;;16.16;84.42;99798.69;108403;1281;22023;-71
2023/04/03 07:29:21;;;;;;;2.60;1.10;;;;;;;16.19;83.90;99798.35;108401;1281;22040;-70
2023/04/03 07:31:47;;;;;;;2.10;0.90;;;;;;;16.20;84.55;99797.63;108585;1277;23705;-71
2023/04/03 07:34:13;;;;;;;1.50;1.00;;;;;;;16.22;83.62;99804.80;108508;1281;21987;-70
2023/04/03 07:36:40;;;;;;;2.30;1.00;;;;;;;16.07;84.79;99807.02;108607;1281;21987;-67
2023/04/03 07:39:07;;;;;;;2.20;1.20;;;;;;;16.04;84.43;99808.23;108330;1281;22195;-67
2023/04/03 07:41:34;;;;;;;2.10;1.00;;;;;;;16.06;84.16;99813.30;108438;1281;21987;-68
2023/04/03 07:44:01;;;;;;;2.50;1.00;;;;;;;16.07;83.59;99812.35;108584;1277;21980;-67
2023/04/03 07:46:26;;;;;;;1.70;0.90;;;;;;;16.11;83.46;99816.60;108389;1277;21985;-68
2023/04/03 07:48:52;;;;;;;1.90;0.80;;;;;;;16.00;83.73;99812.84;108400;1281;22088;-68
2023/04/03 07:51:19;;;;;;;1.60;0.80;;;;;;;16.04;83.41;99819.54;108475;1281;23766;-68
2023/04/03 07:53:45;;;;;;;1.70;0.80;;;;;;;16.05;83.75;99825.17;108351;1281;22939;-66
2023/04/03 07:56:11;;;;;;;1.30;0.80;;;;;;;16.08;83.83;99827.50;108503;1281;23724;-67
2023/04/03 07:58:40;;;;;;;2.60;1.50;;;;;;;16.16;83.38;99827.54;108525;1281;21977;-69
2023/04/03 08:01:07;;;;;;;2.10;1.10;;;;;;;16.18;82.62;99827.97;108467;1281;22450;-67
2023/04/03 08:03:39;;;;;;;2.10;1.10;;;;;;;16.21;82.84;99829.77;108395;1273;23042;-69
2023/04/03 08:06:06;;;;;;;1.90;1.00;;;;;;;16.25;83.61;99835.61;108490;1281;21984;-67
2023/04/03 08:08:33;;;;;;;1.60;0.80;;;;;;;16.27;83.54;99830.42;108402;1281;22093;-67
2023/04/03 08:11:00;;;;;;;2.00;1.00;;;;;;;16.31;82.78;99838.52;108502;1280;21996;-67
2023/04/03 08:13:25;;;;;;;1.20;0.80;;;;;;;16.25;83.11;99843.94;108445;1281;23718;-66
2023/04/03 08:15:51;;;;;;;1.60;0.80;;;;;;;16.33;82.36;99848.75;108439;1281;22735;-68
2023/04/03 08:18:18;;;;;;;1.80;1.10;;;;;;;16.36;82.51;99851.77;108514;1281;21993;-66
2023/04/03 08:20:44;;;;;;;1.40;0.80;;;;;;;16.28;82.67;99858.66;108483;1281;21997;-67
2023/04/03 08:23:11;;;;;;;1.70;0.90;;;;;;;16.28;82.66;99862.05;108461;1281;22009;-66
2023/04/03 08:25:40;;;;;;;1.10;0.80;;;;;;;16.21;82.50;99868.38;108523;1281;22160;-68
2023/04/03 08:28:07;;;;;;;1.50;0.90;;;;;;;16.33;81.39;99871.17;108494;1281;21979;-67
2023/04/03 08:30:33;;;;;;;2.60;1.40;;;;;;;16.36;81.69;99877.45;108493;1276;22203;-66
2023/04/03 08:33:05;;;;;;;2.00;1.10;;;;;;;16.36;81.43;99878.17;108365;1281;21977;-66
2023/04/03 08:35:32;;;;;;;3.00;1.60;;;;;;;16.41;81.54;99879.38;108448;1281;22000;-68
2023/04/03 08:37:58;;;;;;;2.10;1.30;;;;;;;16.42;81.42;99884.46;108407;1281;22847;-67
2023/04/03 08:40:24;;;;;;;2.20;1.30;;;;;;;16.38;81.13;99892.39;108485;1281;21982;-66
2023/04/03 08:42:56;;;;;;;1.20;1.00;;;;;;;16.32;81.21;99905.05;108452;1281;24877;-66
2023/04/03 08:45:47;;;;;;;4.60;1.50;;;;;;;16.27;81.00;99911.30;108495;1281;23721;-67
2023/04/03 08:48:26;;;;;;;3.30;1.50;;;;;;;16.16;81.39;99914.80;108460;1281;21990;-67
2023/04/03 08:50:54;;;;;;;2.60;1.50;;;;;;;16.18;81.31;99917.52;108465;1281;22611;-66
2023/04/03 08:53:27;;;;;;;2.80;1.70;;;;;;;16.21;81.77;99917.92;108608;1281;22042;-67
2023/04/03 08:55:53;;;;;;;3.60;2.00;;;;;;;16.24;81.42;99918.52;108344;1270;23088;-67
2023/04/03 08:58:23;;;;;;;2.90;1.40;;;;;;;16.24;80.53;99918.00;108388;1281;21983;-67
2023/04/03 09:01:05;;;;;;;2.80;1.70;;;;;;;16.17;80.80;99922.87;108516;1281;23041;-67
2023/04/03 09:03:41;;;;;;;2.40;1.50;;;;;;;16.18;81.00;99925.14;108532;1281;21982;-67
2023/04/03 09:06:16;;;;;;;2.90;1.60;;;;;;;16.25;80.53;99928.92;108486;1281;22074;-67
2023/04/03 09:08:42;;;;;;;2.60;1.70;;;;;;;16.17;80.54;99929.08;108418;1281;21977;-67
2023/04/03 09:11:11;;;;;;;3.00;2.00;;;;;;;16.17;80.44;99936.86;108446;1281;21982;-67
2023/04/03 09:14:07;;;;;;;3.30;1.70;;;;;;;16.23;80.68;99941.58;108444;1281;23723;-67
2023/04/03 09:16:57;;;;;;;3.20;1.90;;;;;;;16.25;80.49;99951.21;108431;1281;21990;-67
2023/04/03 09:19:38;;;;;;;3.50;1.80;;;;;;;16.24;80.23;99949.14;108510;1281;21988;-67
2023/04/03 09:22:19;;;;;;;3.30;2.10;;;;;;;16.34;80.41;99953.14;108503;1281;21985;-67
2023/04/03 09:24:50;;;;;;;;;;;;;;;16.43;80.65;99953.80;108502;1277;22000;-67
2023/04/03 09:27:15;;;;;;;4.40;2.10;;;;;;;16.56;81.45;99956.61;108508;1281;21995;-67
2023/04/03 09:29:43;;;;;;;3.10;2.30;;;;;;;16.63;81.10;99955.26;108462;1277;21987;-67
2023/04/03 09:32:26;;;;;;;3.70;2.50;;;;;;;16.68;80.46;99957.34;108273;1280;23045;-67
2023/04/03 09:34:53;;;;;;;3.70;2.60;;;;;;;16.68;79.86;99963.70;108474;1281;22949;-67
2023/04/03 09:37:36;;;;;;;4.50;2.50;;;;;;;16.70;79.18;99973.02;108299;1281;21985;-67
2023/04/03 09:40:04;;;;;;;5.10;2.60;;;;;;;16.72;79.16;99976.30;108390;1281;21986;-67
2023/04/03 09:42:35;;;;;;;4.00;2.90;;;;;;;16.78;78.66;99979.76;108461;1281;21985;-67
2023/04/03 09:45:03;;;;;;;4.70;3.10;;;;;;;16.80;78.44;99978.05;108492;1281;22023;-67
2023/04/03 09:47:29;;;;;;;4.10;2.60;;;;;;;16.86;78.26;99974.95;108429;1281;22258;-68
2023/04/03 09:50:13;;;;;;;10.10;2.90;;;;;;;17.00;78.80;99976.67;108502;1281;21992;-66
2023/04/03 09:52:44;;;;;;;4.00;2.50;;;;;;;17.13;78.39;99977.34;108360;1281;21981;-67
2023/04/03 09:55:26;;;;;;;3.70;2.30;;;;;;;17.28;78.59;99973.80;108452;1281;21983;-67
2023/04/03 09:57:57;;;;;;;4.00;2.50;;;;;;;17.56;78.93;99972.12;108313;1281;21978;-68
2023/04/03 10:00:25;;;;;;;3.40;2.40;;;;;;;17.76;76.37;99980.42;108433;1281;21985;-68
2023/04/03 10:02:55;;;;;;;3.90;2.40;;;;;;;17.87;76.20;99984.66;108419;1281;21980;-68
2023/04/03 10:05:28;;;;;;;3.90;2.80;;;;;;;17.90;75.06;99988.42;108514;1281;21990;-68
2023/04/03 10:08:13;;;;;;;5.70;2.40;;;;;;;17.91;73.77;99992.64;108467;1280;21991;-67
2023/04/03 10:10:43;;;;;;;4.80;2.90;;;;;;;17.97;74.58;99988.98;108513;1268;23081;-66
2023/04/03 10:13:14;;;;;;;4.90;3.10;;;;;;;18.09;75.57;99991.93;108099;1281;350963;-68
2023/04/03 10:15:46;;;;;;;4.30;3.40;;;;;;;18.14;73.35;99993.66;108411;1277;22685;-68
2023/04/03 10:18:32;;;;;;;3.60;2.80;;;;;;;18.21;74.12;99998.48;108454;1281;22248;-67
2023/04/03 10:21:06;;;;;;;4.70;3.50;;;;;;;18.31;74.36;100001.55;108465;1281;22580;-70
2023/04/03 10:23:57;;;;;;;4.40;3.70;;;;;;;18.34;72.60;100008.81;108587;1281;21983;-68
2023/04/03 10:26:37;;;;;;;3.40;3.00;;;;;;;18.30;71.63;100010.80;108577;1280;22018;-66
2023/04/03 10:29:24;;;;;;;4.20;3.30;;;;;;;18.26;71.33;100018.09;108434;1281;22020;-67
2023/04/03 10:32:03;;;;;;;3.20;2.70;;;;;;;18.28;71.67;100021.41;108413;1281;23704;-66
2023/04/03 10:34:52;;;;;;;4.10;3.40;;;;;;;18.38;72.21;100020.52;108422;1281;23709;-69
2023/04/03 10:37:20;;;;;;;6.00;3.70;;;;;;;18.52;73.02;100023.02;108430;1281;21988;-67
2023/04/03 10:40:11;;;;;;;4.10;3.40;;;;;;;18.61;72.10;100024.19;108475;1277;21980;-69
2023/04/03 10:42:47;;;;;;;5.90;4.10;;;;;;;18.60;70.67;100034.73;108525;1281;21990;-69
2023/04/03 10:45:30;;;;;;;4.90;3.70;;;;;;;18.65;71.50;100034.45;108383;1281;21988;-68
2023/04/03 10:48:04;;;;;;;6.80;4.20;;;;;;;18.74;71.65;100039.15;108392;1281;23705;-64
2023/04/03 10:50:56;;;;;;;4.30;3.90;;;;;;;18.90;71.04;100042.08;108267;1281;23637;-63
2023/04/03 10:53:34;;;;;;;5.90;3.30;;;;;;;18.92;69.37;100044.09;108222;1281;22095;-68
2023/04/03 10:56:20;;;;;;;4.20;3.80;;;;;;;18.86;68.31;100047.60;108403;1281;22035;-69
2023/04/03 10:58:54;;;;;;;5.10;3.50;;;;;;;18.73;67.66;100057.13;108408;1277;24320;-68
2023/04/03 11:01:23;;;;;;;4.20;3.30;;;;;;;18.75;67.43;100052.42;108478;1281;22953;-64
2023/04/03 11:03:55;;;;;;;4.90;4.10;;;;;;;18.72;68.06;100051.66;108499;1281;23050;-64
2023/04/03 11:06:23;;;;;;;4.80;3.90;;;;;;;18.87;69.14;100051.62;108429;1281;23602;-64
2023/04/03 11:09:11;;;;;;;4.90;3.80;;;;;;;18.92;67.64;100054.42;108439;1281;21980;-68
2023/04/03 11:11:39;;;;;;;4.50;3.90;;;;;;;18.95;67.72;100051.77;108323;1281;21988;-64
2023/04/03 11:14:34;;;;;;;4.30;3.50;;;;;;;18.89;66.70;100053.14;108433;1281;23615;-63
2023/04/03 11:17:18;;;;;;;4.30;3.90;;;;;;;18.72;66.36;100053.63;108488;1281;21980;-68
2023/04/03 11:19:49;;;;;;;4.70;3.90;;;;;;;18.72;66.67;100054.33;108434;1281;21980;-63
2023/04/03 11:22:22;;;;;;;5.10;3.80;;;;;;;18.78;67.67;100056.17;108295;1281;23606;-69
2023/04/03 11:24:55;;;;;;;6.60;4.00;;;;;;;18.96;67.44;100051.52;108551;1281;23628;-63
2023/04/03 11:27:22;;;;;;;4.70;3.90;;;;;;;19.06;66.49;100048.52;108360;1281;24396;-71
2023/04/03 11:29:49;;;;;;;4.30;3.50;;;;;;;19.08;65.76;100045.08;108216;1281;22072;-67
2023/04/03 11:32:41;;;;;;;5.30;4.40;;;;;;;19.15;65.98;100047.70;108456;1269;22649;-70